sensor_id;sensor_type;location;lat;lon;timestamp;temperature;humidity
17421;DHT22;8828;48.800;9.540;2022-08-20T00:01:45;19.90;99.90
17421;DHT22;8828;48.800;9.540;2022-08-20T00:04:15;19.90;99.90
17421;DHT22;8828;48.800;9.540;2022-08-20T00:06:43;19.90;99.90
17421;DHT22;8828;48.800;9.540;2022-08-20T00:09:11;19.90;99.90
17421;DHT22;8828;48.800;9.540;2022-08-20T00:11:39;19.90;99.90
17421;DHT22;8828;48.800;9.540;2022-08-20T00:14:09;19.90;99.90
17421;DHT22;8828;48.800;9.540;2022-08-20T00:16:37;19.80;99.90
17421;DHT22;8828;48.800;9.540;2022-08-20T00:19:06;19.80;99.90
17421;DHT22;8828;48.800;9.540;2022-08-20T00:21:35;19.80;99.90
17421;DHT22;8828;48.800;9.540;2022-08-20T00:24:04;19.80;99.90
17421;DHT22;8828;48.800;9.540;2022-08-20T00:26:32;19.80;99.90
17421;DHT22;8828;48.800;9.540;2022-08-20T00:29:03;19.80;99.90
17421;DHT22;8828;48.800;9.540;2022-08-20T00:31:32;19.80;99.90
17421;DHT22;8828;48.800;9.540;2022-08-20T00:34:00;19.80;99.90
17421;DHT22;8828;48.800;9.540;2022-08-20T00:36:28;19.80;99.90
17421;DHT22;8828;48.800;9.540;2022-08-20T00:38:58;19.80;99.90
17421;DHT22;8828;48.800;9.540;2022-08-20T00:41:27;19.80;99.90
17421;DHT22;8828;48.800;9.540;2022-08-20T00:44:06;19.80;99.90
17421;DHT22;8828;48.800;9.540;2022-08-20T00:46:38;19.80;99.90
17421;DHT22;8828;48.800;9.540;2022-08-20T00:49:11;19.70;99.90
17421;DHT22;8828;48.800;9.540;2022-08-20T00:51:44;19.70;99.90
17421;DHT22;8828;48.800;9.540;2022-08-20T00:54:17;19.70;99.90
17421;DHT22;8828;48.800;9.540;2022-08-20T00:56:49;19.70;99.90
17421;DHT22;8828;48.800;9.540;2022-08-20T00:59:22;19.70;99.90
17421;DHT22;8828;48.800;9.540;2022-08-20T01:01:52;19.60;99.90
17421;DHT22;8828;48.800;9.540;2022-08-20T01:04:23;19.60;99.90
17421;DHT22;8828;48.800;9.540;2022-08-20T01:06:51;19.60;99.90
17421;DHT22;8828;48.800;9.540;2022-08-20T01:09:20;19.50;99.90
17421;DHT22;8828;48.800;9.540;2022-08-20T01:12:09;19.50;99.90
17421;DHT22;8828;48.800;9.540;2022-08-20T01:14:37;19.50;99.90
17421;DHT22;8828;48.800;9.540;2022-08-20T01:17:14;19.50;99.90
17421;DHT22;8828;48.800;9.540;2022-08-20T01:19:47;19.50;99.90
17421;DHT22;8828;48.800;9.540;2022-08-20T01:22:20;19.40;99.90
17421;DHT22;8828;48.800;9.540;2022-08-20T01:25:15;19.40;99.90
17421;DHT22;8828;48.800;9.540;2022-08-20T01:27:48;19.40;99.90
17421;DHT22;8828;48.800;9.540;2022-08-20T01:30:23;19.40;99.90
17421;DHT22;8828;48.800;9.540;2022-08-20T01:32:53;19.40;99.90
17421;DHT22;8828;48.800;9.540;2022-08-20T01:35:23;19.40;99.90
17421;DHT22;8828;48.800;9.540;2022-08-20T01:37:51;19.30;99.90
17421;DHT22;8828;48.800;9.540;2022-08-20T01:40:31;19.30;99.90
17421;DHT22;8828;48.800;9.540;2022-08-20T01:43:03;19.30;99.90
17421;DHT22;8828;48.800;9.540;2022-08-20T01:45:32;19.30;99.90
17421;DHT22;8828;48.800;9.540;2022-08-20T01:48:03;19.30;99.90
17421;DHT22;8828;48.800;9.540;2022-08-20T01:50:34;19.30;99.90
17421;DHT22;8828;48.800;9.540;2022-08-20T01:53:10;19.30;99.90
17421;DHT22;8828;48.800;9.540;2022-08-20T01:55:40;19.30;99.90
17421;DHT22;8828;48.800;9.540;2022-08-20T01:58:10;19.30;99.90
17421;DHT22;8828;48.800;9.540;2022-08-20T02:00:38;19.30;99.90
17421;DHT22;8828;48.800;9.540;2022-08-20T02:03:06;19.20;99.90
17421;DHT22;8828;48.800;9.540;2022-08-20T02:05:35;19.20;99.90
17421;DHT22;8828;48.800;9.540;2022-08-20T02:08:03;19.20;99.90
17421;DHT22;8828;48.800;9.540;2022-08-20T02:10:32;19.20;99.90
17421;DHT22;8828;48.800;9.540;2022-08-20T02:13:00;19.10;99.90
17421;DHT22;8828;48.800;9.540;2022-08-20T02:15:29;19.10;99.90
17421;DHT22;8828;48.800;9.540;2022-08-20T02:18:04;19.10;99.90
17421;DHT22;8828;48.800;9.540;2022-08-20T02:20:35;19.10;99.90
17421;DHT22;8828;48.800;9.540;2022-08-20T02:23:03;19.10;99.90
17421;DHT22;8828;48.800;9.540;2022-08-20T02:25:33;19.10;99.90
17421;DHT22;8828;48.800;9.540;2022-08-20T02:28:06;19.10;99.90
17421;DHT22;8828;48.800;9.540;2022-08-20T02:30:39;19.10;99.90
17421;DHT22;8828;48.800;9.540;2022-08-20T02:33:09;19.10;99.90
17421;DHT22;8828;48.800;9.540;2022-08-20T02:35:40;19.10;99.90
17421;DHT22;8828;48.800;9.540;2022-08-20T02:38:09;19.10;99.90
17421;DHT22;8828;48.800;9.540;2022-08-20T02:40:37;19.10;99.90
17421;DHT22;8828;48.800;9.540;2022-08-20T02:43:06;19.00;99.90
17421;DHT22;8828;48.800;9.540;2022-08-20T02:45:35;19.00;99.90
17421;DHT22;8828;48.800;9.540;2022-08-20T02:48:11;19.00;99.90
17421;DHT22;8828;48.800;9.540;2022-08-20T02:50:48;19.00;99.90
17421;DHT22;8828;48.800;9.540;2022-08-20T02:53:17;19.00;99.90
17421;DHT22;8828;48.800;9.540;2022-08-20T02:55:46;18.90;99.90
17421;DHT22;8828;48.800;9.540;2022-08-20T02:58:14;18.90;99.90
17421;DHT22;8828;48.800;9.540;2022-08-20T03:00:44;18.90;99.90
17421;DHT22;8828;48.800;9.540;2022-08-20T03:03:12;18.90;99.90
17421;DHT22;8828;48.800;9.540;2022-08-20T03:05:42;18.90;99.90
17421;DHT22;8828;48.800;9.540;2022-08-20T03:08:12;18.90;99.90
17421;DHT22;8828;48.800;9.540;2022-08-20T03:10:43;18.90;99.90
17421;DHT22;8828;48.800;9.540;2022-08-20T03:13:12;18.90;99.90
17421;DHT22;8828;48.800;9.540;2022-08-20T03:15:43;18.80;99.90
17421;DHT22;8828;48.800;9.540;2022-08-20T03:18:11;18.80;99.90
17421;DHT22;8828;48.800;9.540;2022-08-20T03:20:40;18.80;99.90
17421;DHT22;8828;48.800;9.540;2022-08-20T03:23:12;18.80;99.90
17421;DHT22;8828;48.800;9.540;2022-08-20T03:25:40;18.80;99.90
17421;DHT22;8828;48.800;9.540;2022-08-20T03:28:08;18.80;99.90
17421;DHT22;8828;48.800;9.540;2022-08-20T03:30:37;18.70;99.90
17421;DHT22;8828;48.800;9.540;2022-08-20T03:33:07;18.70;99.90
17421;DHT22;8828;48.800;9.540;2022-08-20T03:35:37;18.70;99.90
17421;DHT22;8828;48.800;9.540;2022-08-20T03:38:06;18.70;99.90
17421;DHT22;8828;48.800;9.540;2022-08-20T03:40:36;18.60;99.90
17421;DHT22;8828;48.800;9.540;2022-08-20T03:43:05;18.70;99.90
17421;DHT22;8828;48.800;9.540;2022-08-20T03:45:35;18.60;99.90
17421;DHT22;8828;48.800;9.540;2022-08-20T03:48:05;18.60;99.90
17421;DHT22;8828;48.800;9.540;2022-08-20T03:50:35;18.60;99.90
17421;DHT22;8828;48.800;9.540;2022-08-20T03:53:08;18.60;99.90
17421;DHT22;8828;48.800;9.540;2022-08-20T03:55:42;18.50;99.90
17421;DHT22;8828;48.800;9.540;2022-08-20T03:58:19;18.50;99.90
17421;DHT22;8828;48.800;9.540;2022-08-20T04:01:04;18.50;99.90
17421;DHT22;8828;48.800;9.540;2022-08-20T04:03:53;18.50;99.90
17421;DHT22;8828;48.800;9.540;2022-08-20T04:06:25;18.50;99.90
17421;DHT22;8828;48.800;9.540;2022-08-20T04:08:54;18.50;99.90
17421;DHT22;8828;48.800;9.540;2022-08-20T04:11:23;18.50;99.90
17421;DHT22;8828;48.800;9.540;2022-08-20T04:13:51;18.40;99.90
17421;DHT22;8828;48.800;9.540;2022-08-20T04:16:20;18.40;99.90
17421;DHT22;8828;48.800;9.540;2022-08-20T04:18:48;18.40;99.90
17421;DHT22;8828;48.800;9.540;2022-08-20T04:21:29;18.40;99.90
17421;DHT22;8828;48.800;9.540;2022-08-20T04:23:59;18.40;99.90
17421;DHT22;8828;48.800;9.540;2022-08-20T04:26:28;18.30;99.90
17421;DHT22;8828;48.800;9.540;2022-08-20T04:28:56;18.40;99.90
17421;DHT22;8828;48.800;9.540;2022-08-20T04:31:24;18.30;99.90
17421;DHT22;8828;48.800;9.540;2022-08-20T04:34:00;18.40;99.90
17421;DHT22;8828;48.800;9.540;2022-08-20T04:36:30;18.40;99.90
17421;DHT22;8828;48.800;9.540;2022-08-20T04:38:58;18.40;99.90
17421;DHT22;8828;48.800;9.540;2022-08-20T04:41:26;18.40;99.90
17421;DHT22;8828;48.800;9.540;2022-08-20T04:43:55;18.40;99.90
17421;DHT22;8828;48.800;9.540;2022-08-20T04:46:25;18.40;99.90
17421;DHT22;8828;48.800;9.540;2022-08-20T04:48:54;18.40;99.90
17421;DHT22;8828;48.800;9.540;2022-08-20T04:51:23;18.40;99.90
17421;DHT22;8828;48.800;9.540;2022-08-20T04:53:54;18.40;99.90
17421;DHT22;8828;48.800;9.540;2022-08-20T04:56:25;18.40;99.90
17421;DHT22;8828;48.800;9.540;2022-08-20T04:58:56;18.40;99.90
17421;DHT22;8828;48.800;9.540;2022-08-20T05:01:25;18.50;99.90
17421;DHT22;8828;48.800;9.540;2022-08-20T05:03:55;18.50;99.90
17421;DHT22;8828;48.800;9.540;2022-08-20T05:06:25;18.50;99.90
17421;DHT22;8828;48.800;9.540;2022-08-20T05:08:56;18.60;99.90
17421;DHT22;8828;48.800;9.540;2022-08-20T05:11:25;18.60;99.90
17421;DHT22;8828;48.800;9.540;2022-08-20T05:14:03;18.60;99.90
17421;DHT22;8828;48.800;9.540;2022-08-20T05:16:33;18.60;99.90
17421;DHT22;8828;48.800;9.540;2022-08-20T05:19:05;18.70;99.90
17421;DHT22;8828;48.800;9.540;2022-08-20T05:21:34;18.70;99.90
17421;DHT22;8828;48.800;9.540;2022-08-20T05:24:04;18.70;99.90
17421;DHT22;8828;48.800;9.540;2022-08-20T05:26:32;18.70;99.90
17421;DHT22;8828;48.800;9.540;2022-08-20T05:29:01;18.70;99.90
17421;DHT22;8828;48.800;9.540;2022-08-20T05:31:31;18.70;99.90
17421;DHT22;8828;48.800;9.540;2022-08-20T05:34:01;18.70;99.90
17421;DHT22;8828;48.800;9.540;2022-08-20T05:36:29;18.70;99.90
17421;DHT22;8828;48.800;9.540;2022-08-20T05:38:57;18.80;99.90
17421;DHT22;8828;48.800;9.540;2022-08-20T05:41:26;18.80;99.90
17421;DHT22;8828;48.800;9.540;2022-08-20T05:43:56;18.80;99.90
17421;DHT22;8828;48.800;9.540;2022-08-20T05:46:26;18.80;99.90
17421;DHT22;8828;48.800;9.540;2022-08-20T05:48:54;18.80;99.90
17421;DHT22;8828;48.800;9.540;2022-08-20T05:51:26;18.80;99.90
17421;DHT22;8828;48.800;9.540;2022-08-20T05:53:54;18.90;99.90
17421;DHT22;8828;48.800;9.540;2022-08-20T05:56:27;18.90;99.90
17421;DHT22;8828;48.800;9.540;2022-08-20T05:58:58;18.90;99.90
17421;DHT22;8828;48.800;9.540;2022-08-20T06:01:28;18.90;99.90
17421;DHT22;8828;48.800;9.540;2022-08-20T06:03:56;19.00;99.90
17421;DHT22;8828;48.800;9.540;2022-08-20T06:06:54;19.00;99.90
17421;DHT22;8828;48.800;9.540;2022-08-20T06:09:24;19.00;99.90
17421;DHT22;8828;48.800;9.540;2022-08-20T06:12:00;19.00;99.90
17421;DHT22;8828;48.800;9.540;2022-08-20T06:14:28;19.10;99.90
17421;DHT22;8828;48.800;9.540;2022-08-20T06:17:04;19.10;99.90
17421;DHT22;8828;48.800;9.540;2022-08-20T06:19:34;19.10;99.90
17421;DHT22;8828;48.800;9.540;2022-08-20T06:22:04;19.10;99.90
17421;DHT22;8828;48.800;9.540;2022-08-20T06:24:46;19.10;99.90
17421;DHT22;8828;48.800;9.540;2022-08-20T06:27:16;19.10;99.90
17421;DHT22;8828;48.800;9.540;2022-08-20T06:29:44;19.10;99.90
17421;DHT22;8828;48.800;9.540;2022-08-20T06:32:12;19.20;99.90
17421;DHT22;8828;48.800;9.540;2022-08-20T06:34:41;19.20;99.90
17421;DHT22;8828;48.800;9.540;2022-08-20T06:37:18;19.20;99.90
17421;DHT22;8828;48.800;9.540;2022-08-20T06:39:48;19.30;99.90
17421;DHT22;8828;48.800;9.540;2022-08-20T06:42:18;19.40;99.90
17421;DHT22;8828;48.800;9.540;2022-08-20T06:44:47;19.50;99.90
17421;DHT22;8828;48.800;9.540;2022-08-20T06:47:17;19.50;99.90
17421;DHT22;8828;48.800;9.540;2022-08-20T06:49:46;19.60;99.90
17421;DHT22;8828;48.800;9.540;2022-08-20T06:52:14;19.70;99.90
17421;DHT22;8828;48.800;9.540;2022-08-20T06:54:42;19.70;99.90
17421;DHT22;8828;48.800;9.540;2022-08-20T06:57:10;19.80;99.90
17421;DHT22;8828;48.800;9.540;2022-08-20T06:59:40;19.80;99.90
17421;DHT22;8828;48.800;9.540;2022-08-20T07:02:08;19.80;99.90
17421;DHT22;8828;48.800;9.540;2022-08-20T07:04:36;19.90;99.90
17421;DHT22;8828;48.800;9.540;2022-08-20T07:07:04;19.90;99.90
17421;DHT22;8828;48.800;9.540;2022-08-20T07:09:32;19.90;99.90
17421;DHT22;8828;48.800;9.540;2022-08-20T07:12:01;19.90;99.90
17421;DHT22;8828;48.800;9.540;2022-08-20T07:14:29;19.90;99.90
17421;DHT22;8828;48.800;9.540;2022-08-20T07:17:01;19.90;99.90
17421;DHT22;8828;48.800;9.540;2022-08-20T07:19:30;19.90;99.90
17421;DHT22;8828;48.800;9.540;2022-08-20T07:21:58;19.90;99.90
17421;DHT22;8828;48.800;9.540;2022-08-20T07:24:30;20.00;99.90
17421;DHT22;8828;48.800;9.540;2022-08-20T07:27:01;20.00;99.90
17421;DHT22;8828;48.800;9.540;2022-08-20T07:29:29;20.10;99.90
17421;DHT22;8828;48.800;9.540;2022-08-20T07:32:19;20.10;99.90
17421;DHT22;8828;48.800;9.540;2022-08-20T07:35:09;20.10;99.90
17421;DHT22;8828;48.800;9.540;2022-08-20T07:37:38;20.10;99.90
17421;DHT22;8828;48.800;9.540;2022-08-20T07:40:11;20.10;99.90
17421;DHT22;8828;48.800;9.540;2022-08-20T07:42:39;20.10;99.90
17421;DHT22;8828;48.800;9.540;2022-08-20T07:45:09;20.10;99.90
17421;DHT22;8828;48.800;9.540;2022-08-20T07:47:40;20.10;99.90
17421;DHT22;8828;48.800;9.540;2022-08-20T07:50:12;20.10;99.90
17421;DHT22;8828;48.800;9.540;2022-08-20T07:52:40;20.10;99.90
17421;DHT22;8828;48.800;9.540;2022-08-20T07:55:10;20.10;99.90
17421;DHT22;8828;48.800;9.540;2022-08-20T07:57:39;20.10;99.90
17421;DHT22;8828;48.800;9.540;2022-08-20T08:00:09;20.00;99.90
17421;DHT22;8828;48.800;9.540;2022-08-20T08:02:39;20.10;99.90
17421;DHT22;8828;48.800;9.540;2022-08-20T08:05:07;20.10;99.90
17421;DHT22;8828;48.800;9.540;2022-08-20T08:07:36;20.10;99.90
17421;DHT22;8828;48.800;9.540;2022-08-20T08:10:11;20.10;99.90
17421;DHT22;8828;48.800;9.540;2022-08-20T08:12:44;20.20;99.90
17421;DHT22;8828;48.800;9.540;2022-08-20T08:15:15;20.10;99.90
17421;DHT22;8828;48.800;9.540;2022-08-20T08:17:47;20.20;99.90
17421;DHT22;8828;48.800;9.540;2022-08-20T08:20:16;20.20;99.90
17421;DHT22;8828;48.800;9.540;2022-08-20T08:22:48;20.20;99.90
17421;DHT22;8828;48.800;9.540;2022-08-20T08:25:17;20.20;99.90
17421;DHT22;8828;48.800;9.540;2022-08-20T08:27:45;20.20;99.90
17421;DHT22;8828;48.800;9.540;2022-08-20T08:30:15;20.20;99.90
17421;DHT22;8828;48.800;9.540;2022-08-20T08:32:45;20.20;99.90
17421;DHT22;8828;48.800;9.540;2022-08-20T08:35:30;20.30;99.90
17421;DHT22;8828;48.800;9.540;2022-08-20T08:37:59;20.30;99.90
17421;DHT22;8828;48.800;9.540;2022-08-20T08:40:28;20.30;99.90
17421;DHT22;8828;48.800;9.540;2022-08-20T08:43:00;20.40;99.90
17421;DHT22;8828;48.800;9.540;2022-08-20T08:45:33;20.40;99.90
17421;DHT22;8828;48.800;9.540;2022-08-20T08:48:11;20.50;99.90
17421;DHT22;8828;48.800;9.540;2022-08-20T08:50:46;20.60;99.90
17421;DHT22;8828;48.800;9.540;2022-08-20T08:53:24;20.60;99.90
17421;DHT22;8828;48.800;9.540;2022-08-20T08:55:52;20.70;99.90
17421;DHT22;8828;48.800;9.540;2022-08-20T08:58:21;20.80;99.90
17421;DHT22;8828;48.800;9.540;2022-08-20T09:00:49;20.90;99.90
17421;DHT22;8828;48.800;9.540;2022-08-20T09:03:27;21.00;99.90
17421;DHT22;8828;48.800;9.540;2022-08-20T09:05:58;21.20;99.90
17421;DHT22;8828;48.800;9.540;2022-08-20T09:08:29;21.30;99.90
17421;DHT22;8828;48.800;9.540;2022-08-20T09:11:01;21.40;99.90
17421;DHT22;8828;48.800;9.540;2022-08-20T09:13:30;21.50;99.90
17421;DHT22;8828;48.800;9.540;2022-08-20T09:15:58;21.50;99.90
17421;DHT22;8828;48.800;9.540;2022-08-20T09:18:28;21.60;99.90
17421;DHT22;8828;48.800;9.540;2022-08-20T09:20:56;21.70;99.90
17421;DHT22;8828;48.800;9.540;2022-08-20T09:23:23;21.70;99.90
17421;DHT22;8828;48.800;9.540;2022-08-20T09:25:51;21.80;99.90
17421;DHT22;8828;48.800;9.540;2022-08-20T09:28:19;21.80;99.90
17421;DHT22;8828;48.800;9.540;2022-08-20T09:30:50;21.90;99.90
17421;DHT22;8828;48.800;9.540;2022-08-20T09:33:18;21.90;99.90
17421;DHT22;8828;48.800;9.540;2022-08-20T09:35:47;22.00;99.90
17421;DHT22;8828;48.800;9.540;2022-08-20T09:38:15;22.00;99.90
17421;DHT22;8828;48.800;9.540;2022-08-20T09:40:43;22.10;99.90
17421;DHT22;8828;48.800;9.540;2022-08-20T09:43:12;22.10;99.90
17421;DHT22;8828;48.800;9.540;2022-08-20T09:45:40;22.20;99.90
17421;DHT22;8828;48.800;9.540;2022-08-20T09:48:08;22.30;99.90
17421;DHT22;8828;48.800;9.540;2022-08-20T09:50:37;22.30;99.90
17421;DHT22;8828;48.800;9.540;2022-08-20T09:53:10;22.30;99.90
17421;DHT22;8828;48.800;9.540;2022-08-20T09:55:39;22.30;99.90
17421;DHT22;8828;48.800;9.540;2022-08-20T09:58:13;22.30;99.90
17421;DHT22;8828;48.800;9.540;2022-08-20T10:00:42;22.40;99.90
17421;DHT22;8828;48.800;9.540;2022-08-20T10:03:10;22.40;99.90
17421;DHT22;8828;48.800;9.540;2022-08-20T10:05:38;22.50;99.90
17421;DHT22;8828;48.800;9.540;2022-08-20T10:08:07;22.60;99.90
17421;DHT22;8828;48.800;9.540;2022-08-20T10:10:37;22.90;99.90
17421;DHT22;8828;48.800;9.540;2022-08-20T10:13:05;23.10;99.90
17421;DHT22;8828;48.800;9.540;2022-08-20T10:15:34;23.40;99.90
17421;DHT22;8828;48.800;9.540;2022-08-20T10:18:03;23.60;99.90
17421;DHT22;8828;48.800;9.540;2022-08-20T10:20:33;23.70;99.90
17421;DHT22;8828;48.800;9.540;2022-08-20T10:23:01;23.80;99.90
17421;DHT22;8828;48.800;9.540;2022-08-20T10:25:30;23.70;99.90
17421;DHT22;8828;48.800;9.540;2022-08-20T10:27:59;23.70;99.90
17421;DHT22;8828;48.800;9.540;2022-08-20T10:30:27;23.50;99.90
17421;DHT22;8828;48.800;9.540;2022-08-20T10:32:58;23.30;99.90
17421;DHT22;8828;48.800;9.540;2022-08-20T10:35:26;23.10;99.90
17421;DHT22;8828;48.800;9.540;2022-08-20T10:37:54;22.90;99.90
17421;DHT22;8828;48.800;9.540;2022-08-20T10:40:22;22.70;99.90
17421;DHT22;8828;48.800;9.540;2022-08-20T10:42:50;22.50;99.90
17421;DHT22;8828;48.800;9.540;2022-08-20T10:45:20;22.30;99.90
17421;DHT22;8828;48.800;9.540;2022-08-20T10:47:48;22.10;99.90
17421;DHT22;8828;48.800;9.540;2022-08-20T10:50:16;21.90;99.90
17421;DHT22;8828;48.800;9.540;2022-08-20T10:52:45;21.80;99.90
17421;DHT22;8828;48.800;9.540;2022-08-20T10:55:14;21.60;99.90
17421;DHT22;8828;48.800;9.540;2022-08-20T10:57:42;21.40;99.90
17421;DHT22;8828;48.800;9.540;2022-08-20T11:00:20;21.40;99.90
17421;DHT22;8828;48.800;9.540;2022-08-20T11:02:48;21.30;99.90
17421;DHT22;8828;48.800;9.540;2022-08-20T11:05:16;21.30;99.90
17421;DHT22;8828;48.800;9.540;2022-08-20T11:07:44;21.30;99.90
17421;DHT22;8828;48.800;9.540;2022-08-20T11:10:22;21.30;99.90
17421;DHT22;8828;48.800;9.540;2022-08-20T11:12:50;21.30;99.90
17421;DHT22;8828;48.800;9.540;2022-08-20T11:15:19;21.30;99.90
17421;DHT22;8828;48.800;9.540;2022-08-20T11:17:47;21.40;99.90
17421;DHT22;8828;48.800;9.540;2022-08-20T11:20:17;21.50;99.90
17421;DHT22;8828;48.800;9.540;2022-08-20T11:22:46;21.50;99.90
17421;DHT22;8828;48.800;9.540;2022-08-20T11:25:14;21.60;99.90
17421;DHT22;8828;48.800;9.540;2022-08-20T11:27:47;21.60;99.90
17421;DHT22;8828;48.800;9.540;2022-08-20T11:30:18;21.60;99.90
17421;DHT22;8828;48.800;9.540;2022-08-20T11:32:48;21.60;99.90
17421;DHT22;8828;48.800;9.540;2022-08-20T11:35:16;21.60;99.90
17421;DHT22;8828;48.800;9.540;2022-08-20T11:38:07;21.60;99.90
17421;DHT22;8828;48.800;9.540;2022-08-20T11:40:35;21.60;99.90
17421;DHT22;8828;48.800;9.540;2022-08-20T11:43:03;21.60;99.90
17421;DHT22;8828;48.800;9.540;2022-08-20T11:45:50;21.60;99.90
17421;DHT22;8828;48.800;9.540;2022-08-20T11:48:21;21.60;99.90
17421;DHT22;8828;48.800;9.540;2022-08-20T11:50:49;21.60;99.90
17421;DHT22;8828;48.800;9.540;2022-08-20T11:53:17;21.60;99.90
17421;DHT22;8828;48.800;9.540;2022-08-20T11:55:46;21.60;99.90
17421;DHT22;8828;48.800;9.540;2022-08-20T11:58:14;21.60;99.90
17421;DHT22;8828;48.800;9.540;2022-08-20T12:00:42;21.60;99.90
17421;DHT22;8828;48.800;9.540;2022-08-20T12:03:10;21.60;99.90
17421;DHT22;8828;48.800;9.540;2022-08-20T12:05:41;21.60;99.90
17421;DHT22;8828;48.800;9.540;2022-08-20T12:08:11;21.50;99.90
17421;DHT22;8828;48.800;9.540;2022-08-20T12:10:54;21.40;99.90
17421;DHT22;8828;48.800;9.540;2022-08-20T12:13:22;21.40;99.90
17421;DHT22;8828;48.800;9.540;2022-08-20T12:15:57;21.40;99.90
17421;DHT22;8828;48.800;9.540;2022-08-20T12:18:25;21.30;99.90
17421;DHT22;8828;48.800;9.540;2022-08-20T12:20:55;21.30;99.90
17421;DHT22;8828;48.800;9.540;2022-08-20T12:23:23;21.30;99.90
17421;DHT22;8828;48.800;9.540;2022-08-20T12:25:51;21.20;99.90
17421;DHT22;8828;48.800;9.540;2022-08-20T12:28:19;21.20;99.90
17421;DHT22;8828;48.800;9.540;2022-08-20T12:30:51;21.10;99.90
17421;DHT22;8828;48.800;9.540;2022-08-20T12:33:19;21.10;99.90
17421;DHT22;8828;48.800;9.540;2022-08-20T12:35:47;21.00;99.90
17421;DHT22;8828;48.800;9.540;2022-08-20T12:38:17;21.00;99.90
17421;DHT22;8828;48.800;9.540;2022-08-20T12:40:45;21.00;99.90
17421;DHT22;8828;48.800;9.540;2022-08-20T12:43:13;21.00;99.90
17421;DHT22;8828;48.800;9.540;2022-08-20T12:45:41;21.00;99.90
17421;DHT22;8828;48.800;9.540;2022-08-20T12:48:11;21.00;99.90
17421;DHT22;8828;48.800;9.540;2022-08-20T12:50:42;21.00;99.90
17421;DHT22;8828;48.800;9.540;2022-08-20T12:53:11;21.00;99.90
17421;DHT22;8828;48.800;9.540;2022-08-20T12:55:40;21.00;99.90
17421;DHT22;8828;48.800;9.540;2022-08-20T12:58:09;21.00;99.90
17421;DHT22;8828;48.800;9.540;2022-08-20T13:00:39;21.00;99.90
17421;DHT22;8828;48.800;9.540;2022-08-20T13:03:15;21.00;99.90
17421;DHT22;8828;48.800;9.540;2022-08-20T13:05:44;21.10;99.90
17421;DHT22;8828;48.800;9.540;2022-08-20T13:08:12;21.10;99.90
17421;DHT22;8828;48.800;9.540;2022-08-20T13:10:42;21.10;99.90
17421;DHT22;8828;48.800;9.540;2022-08-20T13:13:12;21.10;99.90
17421;DHT22;8828;48.800;9.540;2022-08-20T13:15:43;21.10;99.90
17421;DHT22;8828;48.800;9.540;2022-08-20T13:18:11;21.20;99.90
17421;DHT22;8828;48.800;9.540;2022-08-20T13:20:39;21.20;99.90
17421;DHT22;8828;48.800;9.540;2022-08-20T13:23:06;21.20;99.90
17421;DHT22;8828;48.800;9.540;2022-08-20T13:25:34;21.30;99.90
17421;DHT22;8828;48.800;9.540;2022-08-20T13:28:04;21.30;99.90
17421;DHT22;8828;48.800;9.540;2022-08-20T13:30:33;21.30;99.90
17421;DHT22;8828;48.800;9.540;2022-08-20T13:33:03;21.40;99.90
17421;DHT22;8828;48.800;9.540;2022-08-20T13:35:31;21.60;99.90
17421;DHT22;8828;48.800;9.540;2022-08-20T13:37:59;21.60;99.90
17421;DHT22;8828;48.800;9.540;2022-08-20T13:40:27;21.70;99.90
17421;DHT22;8828;48.800;9.540;2022-08-20T13:42:55;21.70;99.90
17421;DHT22;8828;48.800;9.540;2022-08-20T13:45:25;21.80;99.90
17421;DHT22;8828;48.800;9.540;2022-08-20T13:47:54;21.90;99.90
17421;DHT22;8828;48.800;9.540;2022-08-20T13:50:24;21.90;99.90
17421;DHT22;8828;48.800;9.540;2022-08-20T13:52:52;21.90;99.90
17421;DHT22;8828;48.800;9.540;2022-08-20T13:55:24;21.90;99.90
17421;DHT22;8828;48.800;9.540;2022-08-20T13:57:54;21.90;99.90
17421;DHT22;8828;48.800;9.540;2022-08-20T14:00:26;21.80;99.90
17421;DHT22;8828;48.800;9.540;2022-08-20T14:02:57;21.80;99.90
17421;DHT22;8828;48.800;9.540;2022-08-20T14:05:25;21.70;99.90
17421;DHT22;8828;48.800;9.540;2022-08-20T14:07:53;21.60;99.90
17421;DHT22;8828;48.800;9.540;2022-08-20T14:10:24;21.60;99.90
17421;DHT22;8828;48.800;9.540;2022-08-20T14:12:57;21.50;99.90
17421;DHT22;8828;48.800;9.540;2022-08-20T14:15:26;21.50;99.90
17421;DHT22;8828;48.800;9.540;2022-08-20T14:17:56;21.40;99.90
17421;DHT22;8828;48.800;9.540;2022-08-20T14:20:26;21.40;99.90
17421;DHT22;8828;48.800;9.540;2022-08-20T14:22:58;21.40;99.90
17421;DHT22;8828;48.800;9.540;2022-08-20T14:25:28;21.40;99.90
17421;DHT22;8828;48.800;9.540;2022-08-20T14:27:58;21.40;99.90
17421;DHT22;8828;48.800;9.540;2022-08-20T14:30:29;21.40;99.90
17421;DHT22;8828;48.800;9.540;2022-08-20T14:32:57;21.40;99.90
17421;DHT22;8828;48.800;9.540;2022-08-20T14:35:25;21.40;99.90
17421;DHT22;8828;48.800;9.540;2022-08-20T14:37:53;21.40;99.90
17421;DHT22;8828;48.800;9.540;2022-08-20T14:40:24;21.40;99.90
17421;DHT22;8828;48.800;9.540;2022-08-20T14:42:53;21.40;99.90
17421;DHT22;8828;48.800;9.540;2022-08-20T14:45:22;21.40;99.90
17421;DHT22;8828;48.800;9.540;2022-08-20T14:47:54;21.50;99.90
17421;DHT22;8828;48.800;9.540;2022-08-20T14:50:26;21.50;99.90
17421;DHT22;8828;48.800;9.540;2022-08-20T14:52:54;21.70;99.90
17421;DHT22;8828;48.800;9.540;2022-08-20T14:55:25;21.70;99.90
17421;DHT22;8828;48.800;9.540;2022-08-20T14:57:53;21.80;99.90
17421;DHT22;8828;48.800;9.540;2022-08-20T15:00:23;21.90;99.90
17421;DHT22;8828;48.800;9.540;2022-08-20T15:02:53;21.90;99.90
17421;DHT22;8828;48.800;9.540;2022-08-20T15:05:22;21.90;99.90
17421;DHT22;8828;48.800;9.540;2022-08-20T15:07:50;22.10;99.90
17421;DHT22;8828;48.800;9.540;2022-08-20T15:10:22;22.20;99.90
17421;DHT22;8828;48.800;9.540;2022-08-20T15:12:50;22.20;99.90
17421;DHT22;8828;48.800;9.540;2022-08-20T15:15:19;22.30;99.90
17421;DHT22;8828;48.800;9.540;2022-08-20T15:17:49;22.30;99.90
17421;DHT22;8828;48.800;9.540;2022-08-20T15:20:21;22.40;99.90
17421;DHT22;8828;48.800;9.540;2022-08-20T15:22:50;22.40;99.90
17421;DHT22;8828;48.800;9.540;2022-08-20T15:25:21;22.40;99.90
17421;DHT22;8828;48.800;9.540;2022-08-20T15:27:50;22.40;99.90
17421;DHT22;8828;48.800;9.540;2022-08-20T15:30:28;22.40;99.90
17421;DHT22;8828;48.800;9.540;2022-08-20T15:32:56;22.40;99.90
17421;DHT22;8828;48.800;9.540;2022-08-20T15:35:27;22.40;99.90
17421;DHT22;8828;48.800;9.540;2022-08-20T15:37:57;22.30;99.90
17421;DHT22;8828;48.800;9.540;2022-08-20T15:40:27;22.30;99.90
17421;DHT22;8828;48.800;9.540;2022-08-20T15:42:55;22.30;99.90
17421;DHT22;8828;48.800;9.540;2022-08-20T15:45:24;22.30;99.90
17421;DHT22;8828;48.800;9.540;2022-08-20T15:47:54;22.30;99.90
17421;DHT22;8828;48.800;9.540;2022-08-20T15:50:55;22.30;99.90
17421;DHT22;8828;48.800;9.540;2022-08-20T15:53:31;22.40;99.90
17421;DHT22;8828;48.800;9.540;2022-08-20T15:56:07;22.40;99.90
17421;DHT22;8828;48.800;9.540;2022-08-20T15:58:44;22.40;99.90
17421;DHT22;8828;48.800;9.540;2022-08-20T16:01:19;22.40;99.90
17421;DHT22;8828;48.800;9.540;2022-08-20T16:04:20;22.40;99.90
17421;DHT22;8828;48.800;9.540;2022-08-20T16:06:57;22.30;99.90